sensor_id;sensor_type;location;lat;lon;timestamp;temperature;humidity
8563;DHT22;16392;52.508;13.468;2023-03-01T00:00:39;-0.20;99.90
8563;DHT22;16392;52.508;13.468;2023-03-01T00:03:05;-0.10;99.90
8563;DHT22;16392;52.508;13.468;2023-03-01T00:05:34;-0.10;99.90
8563;DHT22;16392;52.508;13.468;2023-03-01T00:08:00;-0.20;1.00
8563;DHT22;16392;52.508;13.468;2023-03-01T00:10:27;-0.20;1.00
8563;DHT22;16392;52.508;13.468;2023-03-01T00:12:53;-0.20;1.00
8563;DHT22;16392;52.508;13.468;2023-03-01T00:15:21;-0.60;1.00
8563;DHT22;16392;52.508;13.468;2023-03-01T00:17:48;-0.90;1.00
8563;DHT22;16392;52.508;13.468;2023-03-01T00:20:15;-0.80;1.00
8563;DHT22;16392;52.508;13.468;2023-03-01T00:22:43;-0.90;1.00
8563;DHT22;16392;52.508;13.468;2023-03-01T00:25:10;-1.10;99.90
8563;DHT22;16392;52.508;13.468;2023-03-01T00:27:36;-0.70;1.00
8563;DHT22;16392;52.508;13.468;2023-03-01T00:30:03;-0.30;99.90
8563;DHT22;16392;52.508;13.468;2023-03-01T00:32:30;-0.30;99.90
8563;DHT22;16392;52.508;13.468;2023-03-01T00:34:57;-0.60;76.40
8563;DHT22;16392;52.508;13.468;2023-03-01T00:37:24;-0.80;99.90
8563;DHT22;16392;52.508;13.468;2023-03-01T00:39:52;-1.10;1.00
8563;DHT22;16392;52.508;13.468;2023-03-01T00:42:18;-1.20;1.00
8563;DHT22;16392;52.508;13.468;2023-03-01T00:44:45;-1.40;99.90
8563;DHT22;16392;52.508;13.468;2023-03-01T00:47:12;-1.50;1.00
8563;DHT22;16392;52.508;13.468;2023-03-01T00:49:39;-1.60;1.00
8563;DHT22;16392;52.508;13.468;2023-03-01T00:52:06;-1.70;1.00
8563;DHT22;16392;52.508;13.468;2023-03-01T00:54:32;-1.80;1.00
8563;DHT22;16392;52.508;13.468;2023-03-01T00:57:00;-1.70;99.90
8563;DHT22;16392;52.508;13.468;2023-03-01T00:59:27;-1.20;1.00
8563;DHT22;16392;52.508;13.468;2023-03-01T01:01:53;-0.80;1.00
8563;DHT22;16392;52.508;13.468;2023-03-01T01:04:20;-0.70;1.00
8563;DHT22;16392;52.508;13.468;2023-03-01T01:06:47;-0.90;99.90
8563;DHT22;16392;52.508;13.468;2023-03-01T01:09:15;-1.10;1.00
8563;DHT22;16392;52.508;13.468;2023-03-01T01:11:44;-0.90;1.00
8563;DHT22;16392;52.508;13.468;2023-03-01T01:14:12;-0.60;99.90
8563;DHT22;16392;52.508;13.468;2023-03-01T01:16:39;-0.60;1.00
8563;DHT22;16392;52.508;13.468;2023-03-01T01:19:06;-0.70;1.00
8563;DHT22;16392;52.508;13.468;2023-03-01T01:21:33;-0.80;1.00
8563;DHT22;16392;52.508;13.468;2023-03-01T01:24:00;-1.10;99.90
8563;DHT22;16392;52.508;13.468;2023-03-01T01:26:28;-1.20;99.90
8563;DHT22;16392;52.508;13.468;2023-03-01T01:28:56;-1.20;1.00
8563;DHT22;16392;52.508;13.468;2023-03-01T01:31:25;-1.20;1.00
8563;DHT22;16392;52.508;13.468;2023-03-01T01:33:52;-1.10;99.90
8563;DHT22;16392;52.508;13.468;2023-03-01T01:36:19;-1.00;99.90
8563;DHT22;16392;52.508;13.468;2023-03-01T01:38:46;-1.10;99.90
8563;DHT22;16392;52.508;13.468;2023-03-01T01:41:13;-1.10;99.90
8563;DHT22;16392;52.508;13.468;2023-03-01T01:43:43;-1.30;99.90
8563;DHT22;16392;52.508;13.468;2023-03-01T01:46:16;-1.50;99.90
8563;DHT22;16392;52.508;13.468;2023-03-01T01:48:50;-1.70;99.90
8563;DHT22;16392;52.508;13.468;2023-03-01T01:51:21;-1.80;1.00
8563;DHT22;16392;52.508;13.468;2023-03-01T01:53:52;-1.80;1.00
8563;DHT22;16392;52.508;13.468;2023-03-01T01:56:20;-1.70;1.00
8563;DHT22;16392;52.508;13.468;2023-03-01T01:58:48;-1.60;1.00
8563;DHT22;16392;52.508;13.468;2023-03-01T02:01:15;-1.40;1.00
8563;DHT22;16392;52.508;13.468;2023-03-01T02:03:43;-1.40;1.00
8563;DHT22;16392;52.508;13.468;2023-03-01T02:06:17;-1.10;1.00
8563;DHT22;16392;52.508;13.468;2023-03-01T02:08:47;-0.80;1.00
8563;DHT22;16392;52.508;13.468;2023-03-01T02:11:15;-0.60;1.00
8563;DHT22;16392;52.508;13.468;2023-03-01T02:13:43;-0.60;99.90
8563;DHT22;16392;52.508;13.468;2023-03-01T02:16:13;-0.70;92.70
8563;DHT22;16392;52.508;13.468;2023-03-01T02:18:41;-0.90;99.90
8563;DHT22;16392;52.508;13.468;2023-03-01T02:24:14;-1.10;99.90
8563;DHT22;16392;52.508;13.468;2023-03-01T02:26:48;-1.10;1.00
8563;DHT22;16392;52.508;13.468;2023-03-01T02:29:17;-1.00;99.90
8563;DHT22;16392;52.508;13.468;2023-03-01T02:31:44;-1.10;1.00
8563;DHT22;16392;52.508;13.468;2023-03-01T02:34:13;-1.30;8.80
8563;DHT22;16392;52.508;13.468;2023-03-01T02:36:44;-1.50;1.00
8563;DHT22;16392;52.508;13.468;2023-03-01T02:39:18;-1.60;1.00
8563;DHT22;16392;52.508;13.468;2023-03-01T02:41:48;-1.50;99.90
8563;DHT22;16392;52.508;13.468;2023-03-01T02:44:17;-1.40;99.90
8563;DHT22;16392;52.508;13.468;2023-03-01T02:46:46;-1.30;99.90
8563;DHT22;16392;52.508;13.468;2023-03-01T02:49:19;-1.20;99.90
8563;DHT22;16392;52.508;13.468;2023-03-01T02:54:41;-1.20;99.90
8563;DHT22;16392;52.508;13.468;2023-03-01T02:57:10;-1.30;99.90
8563;DHT22;16392;52.508;13.468;2023-03-01T02:59:38;-1.40;99.90
8563;DHT22;16392;52.508;13.468;2023-03-01T03:02:06;-1.40;99.90
8563;DHT22;16392;52.508;13.468;2023-03-01T03:04:33;-1.50;99.90
8563;DHT22;16392;52.508;13.468;2023-03-01T03:07:00;-1.60;99.90
8563;DHT22;16392;52.508;13.468;2023-03-01T03:09:26;-1.80;1.00
8563;DHT22;16392;52.508;13.468;2023-03-01T03:11:53;-2.00;52.60
8563;DHT22;16392;52.508;13.468;2023-03-01T03:14:20;-2.00;1.00
8563;DHT22;16392;52.508;13.468;2023-03-01T03:16:49;-1.90;1.00
8563;DHT22;16392;52.508;13.468;2023-03-01T03:19:17;-1.90;1.00
8563;DHT22;16392;52.508;13.468;2023-03-01T03:21:44;-1.80;1.00
8563;DHT22;16392;52.508;13.468;2023-03-01T03:24:10;-1.60;1.00
8563;DHT22;16392;52.508;13.468;2023-03-01T03:26:37;-1.60;1.00
8563;DHT22;16392;52.508;13.468;2023-03-01T03:29:04;-1.60;1.00
8563;DHT22;16392;52.508;13.468;2023-03-01T03:31:30;-1.60;1.00
8563;DHT22;16392;52.508;13.468;2023-03-01T03:33:58;-1.60;1.00
8563;DHT22;16392;52.508;13.468;2023-03-01T03:36:25;-1.60;1.00
8563;DHT22;16392;52.508;13.468;2023-03-01T03:38:51;-1.70;1.00
8563;DHT22;16392;52.508;13.468;2023-03-01T03:41:18;-1.90;1.00
8563;DHT22;16392;52.508;13.468;2023-03-01T03:43:45;-1.90;9.50
8563;DHT22;16392;52.508;13.468;2023-03-01T03:46:11;-1.70;99.90
8563;DHT22;16392;52.508;13.468;2023-03-01T03:48:40;-1.60;99.90
8563;DHT22;16392;52.508;13.468;2023-03-01T03:51:10;-1.60;99.90
8563;DHT22;16392;52.508;13.468;2023-03-01T03:53:37;-1.80;99.90
8563;DHT22;16392;52.508;13.468;2023-03-01T03:56:04;-2.00;99.90
8563;DHT22;16392;52.508;13.468;2023-03-01T03:58:31;-2.10;99.90
8563;DHT22;16392;52.508;13.468;2023-03-01T04:00:57;-2.00;99.90
8563;DHT22;16392;52.508;13.468;2023-03-01T04:03:27;-1.90;99.90
8563;DHT22;16392;52.508;13.468;2023-03-01T04:05:56;-1.90;99.90
8563;DHT22;16392;52.508;13.468;2023-03-01T04:08:25;-2.00;99.90
8563;DHT22;16392;52.508;13.468;2023-03-01T04:10:55;-2.30;99.90
8563;DHT22;16392;52.508;13.468;2023-03-01T04:13:23;-2.40;99.90
8563;DHT22;16392;52.508;13.468;2023-03-01T04:15:50;-2.50;99.90
8563;DHT22;16392;52.508;13.468;2023-03-01T04:18:21;-2.50;99.90
8563;DHT22;16392;52.508;13.468;2023-03-01T04:20:49;-2.60;99.90
8563;DHT22;16392;52.508;13.468;2023-03-01T04:23:18;-2.50;99.90
8563;DHT22;16392;52.508;13.468;2023-03-01T04:25:49;-2.60;99.90
8563;DHT22;16392;52.508;13.468;2023-03-01T04:28:19;-2.80;99.90
8563;DHT22;16392;52.508;13.468;2023-03-01T04:30:46;-2.90;99.90
8563;DHT22;16392;52.508;13.468;2023-03-01T04:33:13;-2.80;99.90
8563;DHT22;16392;52.508;13.468;2023-03-01T04:35:39;-2.60;99.90
8563;DHT22;16392;52.508;13.468;2023-03-01T04:38:06;-2.30;99.90
8563;DHT22;16392;52.508;13.468;2023-03-01T04:40:33;-2.30;99.90
8563;DHT22;16392;52.508;13.468;2023-03-01T04:43:02;-2.50;99.90
8563;DHT22;16392;52.508;13.468;2023-03-01T04:45:29;-2.70;99.90
8563;DHT22;16392;52.508;13.468;2023-03-01T04:47:56;-2.90;99.90
8563;DHT22;16392;52.508;13.468;2023-03-01T04:50:23;-2.90;99.90
8563;DHT22;16392;52.508;13.468;2023-03-01T04:52:51;-2.80;99.90
8563;DHT22;16392;52.508;13.468;2023-03-01T04:55:18;-2.70;99.90
8563;DHT22;16392;52.508;13.468;2023-03-01T04:57:45;-2.70;99.90
8563;DHT22;16392;52.508;13.468;2023-03-01T05:00:14;-2.70;99.90
8563;DHT22;16392;52.508;13.468;2023-03-01T05:02:51;-2.70;99.90
8563;DHT22;16392;52.508;13.468;2023-03-01T05:05:21;-2.80;99.90
8563;DHT22;16392;52.508;13.468;2023-03-01T05:07:51;-2.80;99.90
8563;DHT22;16392;52.508;13.468;2023-03-01T05:10:18;-2.80;99.90
8563;DHT22;16392;52.508;13.468;2023-03-01T05:12:45;-2.60;99.90
8563;DHT22;16392;52.508;13.468;2023-03-01T05:15:13;-2.60;99.90
8563;DHT22;16392;52.508;13.468;2023-03-01T05:17:40;-2.60;99.90
8563;DHT22;16392;52.508;13.468;2023-03-01T05:20:08;-2.70;99.90
8563;DHT22;16392;52.508;13.468;2023-03-01T05:22:36;-2.80;99.90
8563;DHT22;16392;52.508;13.468;2023-03-01T05:25:03;-2.70;99.90
8563;DHT22;16392;52.508;13.468;2023-03-01T05:27:30;-2.50;99.90
8563;DHT22;16392;52.508;13.468;2023-03-01T05:29:56;-2.40;99.90
8563;DHT22;16392;52.508;13.468;2023-03-01T05:32:24;-2.40;99.90
8563;DHT22;16392;52.508;13.468;2023-03-01T05:34:51;-2.50;99.90
8563;DHT22;16392;52.508;13.468;2023-03-01T05:37:19;-2.70;99.90
8563;DHT22;16392;52.508;13.468;2023-03-01T05:39:46;-2.90;99.90
8563;DHT22;16392;52.508;13.468;2023-03-01T05:42:15;-3.00;99.90
8563;DHT22;16392;52.508;13.468;2023-03-01T05:44:42;-3.20;99.90
8563;DHT22;16392;52.508;13.468;2023-03-01T05:47:08;-3.30;99.90
8563;DHT22;16392;52.508;13.468;2023-03-01T05:49:36;-3.20;99.90
8563;DHT22;16392;52.508;13.468;2023-03-01T05:52:03;-3.20;99.90
8563;DHT22;16392;52.508;13.468;2023-03-01T05:54:30;-3.20;99.90
8563;DHT22;16392;52.508;13.468;2023-03-01T05:56:57;-3.10;99.90
8563;DHT22;16392;52.508;13.468;2023-03-01T05:59:23;-3.10;99.90
8563;DHT22;16392;52.508;13.468;2023-03-01T06:01:50;-3.00;99.90
8563;DHT22;16392;52.508;13.468;2023-03-01T06:04:17;-2.90;99.90
8563;DHT22;16392;52.508;13.468;2023-03-01T06:06:44;-2.60;99.90
8563;DHT22;16392;52.508;13.468;2023-03-01T06:09:11;-2.20;99.90
8563;DHT22;16392;52.508;13.468;2023-03-01T06:11:38;-1.70;99.90
8563;DHT22;16392;52.508;13.468;2023-03-01T06:14:06;-1.10;99.90
8563;DHT22;16392;52.508;13.468;2023-03-01T06:16:33;-0.70;99.90
8563;DHT22;16392;52.508;13.468;2023-03-01T06:18:59;0.00;99.90
8563;DHT22;16392;52.508;13.468;2023-03-01T06:21:26;0.50;99.90
8563;DHT22;16392;52.508;13.468;2023-03-01T06:23:54;1.00;99.90
8563;DHT22;16392;52.508;13.468;2023-03-01T06:26:20;1.20;99.90
8563;DHT22;16392;52.508;13.468;2023-03-01T06:28:47;1.20;99.90
8563;DHT22;16392;52.508;13.468;2023-03-01T06:31:14;1.20;99.90
8563;DHT22;16392;52.508;13.468;2023-03-01T06:33:40;1.40;99.90
8563;DHT22;16392;52.508;13.468;2023-03-01T06:36:08;1.50;99.90
8563;DHT22;16392;52.508;13.468;2023-03-01T06:38:35;1.70;99.90
8563;DHT22;16392;52.508;13.468;2023-03-01T06:41:03;1.90;91.00
8563;DHT22;16392;52.508;13.468;2023-03-01T06:43:30;2.00;1.00
8563;DHT22;16392;52.508;13.468;2023-03-01T06:45:57;1.90;1.00
8563;DHT22;16392;52.508;13.468;2023-03-01T06:48:23;1.80;1.00
8563;DHT22;16392;52.508;13.468;2023-03-01T06:50:50;1.70;99.90
8563;DHT22;16392;52.508;13.468;2023-03-01T06:53:16;2.00;99.90
8563;DHT22;16392;52.508;13.468;2023-03-01T06:55:43;2.30;1.00
8563;DHT22;16392;52.508;13.468;2023-03-01T06:58:11;2.60;99.90
8563;DHT22;16392;52.508;13.468;2023-03-01T07:00:37;3.10;99.90
8563;DHT22;16392;52.508;13.468;2023-03-01T07:03:06;3.60;1.00
8563;DHT22;16392;52.508;13.468;2023-03-01T07:05:33;4.10;99.90
8563;DHT22;16392;52.508;13.468;2023-03-01T07:08:00;4.60;30.60
8563;DHT22;16392;52.508;13.468;2023-03-01T07:10:27;5.30;13.10
8563;DHT22;16392;52.508;13.468;2023-03-01T07:12:55;5.90;99.90
8563;DHT22;16392;52.508;13.468;2023-03-01T07:15:23;6.00;99.90
8563;DHT22;16392;52.508;13.468;2023-03-01T07:17:49;6.30;1.00
8563;DHT22;16392;52.508;13.468;2023-03-01T07:20:16;6.60;1.00
8563;DHT22;16392;52.508;13.468;2023-03-01T07:22:44;6.60;1.00
8563;DHT22;16392;52.508;13.468;2023-03-01T07:25:11;6.80;1.00
8563;DHT22;16392;52.508;13.468;2023-03-01T07:27:37;7.80;1.00
8563;DHT22;16392;52.508;13.468;2023-03-01T07:30:05;7.90;99.90
8563;DHT22;16392;52.508;13.468;2023-03-01T07:32:33;7.80;99.90
8563;DHT22;16392;52.508;13.468;2023-03-01T07:34:59;8.10;99.90
8563;DHT22;16392;52.508;13.468;2023-03-01T07:37:26;8.40;99.90
8563;DHT22;16392;52.508;13.468;2023-03-01T07:39:53;8.60;99.90
8563;DHT22;16392;52.508;13.468;2023-03-01T07:42:20;9.40;99.90
8563;DHT22;16392;52.508;13.468;2023-03-01T07:44:46;9.90;25.10
8563;DHT22;16392;52.508;13.468;2023-03-01T07:47:13;10.10;1.00
8563;DHT22;16392;52.508;13.468;2023-03-01T07:49:41;10.10;1.00
8563;DHT22;16392;52.508;13.468;2023-03-01T07:52:10;10.20;1.00
8563;DHT22;16392;52.508;13.468;2023-03-01T07:54:37;10.10;1.00
8563;DHT22;16392;52.508;13.468;2023-03-01T07:57:03;10.10;1.00
8563;DHT22;16392;52.508;13.468;2023-03-01T07:59:30;10.30;1.00
8563;DHT22;16392;52.508;13.468;2023-03-01T08:01:57;11.00;1.00
8563;DHT22;16392;52.508;13.468;2023-03-01T08:04:24;11.00;1.00
8563;DHT22;16392;52.508;13.468;2023-03-01T08:06:53;11.10;1.00
8563;DHT22;16392;52.508;13.468;2023-03-01T08:09:20;10.90;1.00
8563;DHT22;16392;52.508;13.468;2023-03-01T08:11:47;11.30;1.00
8563;DHT22;16392;52.508;13.468;2023-03-01T08:14:13;11.50;1.00
8563;DHT22;16392;52.508;13.468;2023-03-01T08:16:40;11.30;1.00
8563;DHT22;16392;52.508;13.468;2023-03-01T08:19:07;11.40;1.00
8563;DHT22;16392;52.508;13.468;2023-03-01T08:21:34;11.80;1.00
8563;DHT22;16392;52.508;13.468;2023-03-01T08:24:03;11.80;1.00
8563;DHT22;16392;52.508;13.468;2023-03-01T08:26:32;11.00;1.00
8563;DHT22;16392;52.508;13.468;2023-03-01T08:29:00;10.90;1.00
8563;DHT22;16392;52.508;13.468;2023-03-01T08:31:28;11.50;1.00
8563;DHT22;16392;52.508;13.468;2023-03-01T08:33:58;11.10;99.90
8563;DHT22;16392;52.508;13.468;2023-03-01T08:36:27;10.70;99.90
8563;DHT22;16392;52.508;13.468;2023-03-01T08:38:53;10.70;99.90
8563;DHT22;16392;52.508;13.468;2023-03-01T08:41:22;10.80;99.90
8563;DHT22;16392;52.508;13.468;2023-03-01T08:43:48;11.50;99.90
8563;DHT22;16392;52.508;13.468;2023-03-01T08:46:15;11.90;99.90
8563;DHT22;16392;52.508;13.468;2023-03-01T08:48:42;11.60;99.90
8563;DHT22;16392;52.508;13.468;2023-03-01T08:51:10;10.70;99.90
8563;DHT22;16392;52.508;13.468;2023-03-01T08:53:36;10.90;99.90
8563;DHT22;16392;52.508;13.468;2023-03-01T08:56:03;11.20;99.90
8563;DHT22;16392;52.508;13.468;2023-03-01T08:58:32;11.30;99.90
8563;DHT22;16392;52.508;13.468;2023-03-01T09:00:59;11.60;99.90
8563;DHT22;16392;52.508;13.468;2023-03-01T09:03:25;10.50;99.90
8563;DHT22;16392;52.508;13.468;2023-03-01T09:05:53;10.00;99.90
8563;DHT22;16392;52.508;13.468;2023-03-01T09:08:19;9.60;99.90
8563;DHT22;16392;52.508;13.468;2023-03-01T09:10:46;9.90;99.90
8563;DHT22;16392;52.508;13.468;2023-03-01T09:13:12;10.70;99.90
8563;DHT22;16392;52.508;13.468;2023-03-01T09:15:40;10.60;99.90
8563;DHT22;16392;52.508;13.468;2023-03-01T09:18:07;10.40;99.90
8563;DHT22;16392;52.508;13.468;2023-03-01T09:20:33;10.70;99.90
8563;DHT22;16392;52.508;13.468;2023-03-01T09:23:00;10.90;99.90
8563;DHT22;16392;52.508;13.468;2023-03-01T09:25:27;11.30;99.90
8563;DHT22;16392;52.508;13.468;2023-03-01T09:27:54;11.00;99.90
8563;DHT22;16392;52.508;13.468;2023-03-01T09:30:21;10.40;99.90
8563;DHT22;16392;52.508;13.468;2023-03-01T09:32:50;9.90;99.90
8563;DHT22;16392;52.508;13.468;2023-03-01T09:35:17;10.30;99.90
8563;DHT22;16392;52.508;13.468;2023-03-01T09:37:45;10.40;99.90
8563;DHT22;16392;52.508;13.468;2023-03-01T09:40:15;10.40;99.90
8563;DHT22;16392;52.508;13.468;2023-03-01T09:42:50;11.00;99.90
8563;DHT22;16392;52.508;13.468;2023-03-01T09:45:26;11.40;99.90
8563;DHT22;16392;52.508;13.468;2023-03-01T09:47:55;11.20;99.90
8563;DHT22;16392;52.508;13.468;2023-03-01T09:50:23;11.50;99.90
8563;DHT22;16392;52.508;13.468;2023-03-01T09:53:01;12.30;99.90
8563;DHT22;16392;52.508;13.468;2023-03-01T09:55:31;12.80;99.90
8563;DHT22;16392;52.508;13.468;2023-03-01T09:58:06;12.50;99.90
8563;DHT22;16392;52.508;13.468;2023-03-01T10:00:43;11.90;99.90
8563;DHT22;16392;52.508;13.468;2023-03-01T10:03:17;11.70;99.90
8563;DHT22;16392;52.508;13.468;2023-03-01T10:05:56;11.30;99.90
8563;DHT22;16392;52.508;13.468;2023-03-01T10:08:29;11.10;99.90
8563;DHT22;16392;52.508;13.468;2023-03-01T10:10:59;10.60;99.90
8563;DHT22;16392;52.508;13.468;2023-03-01T10:13:31;10.30;99.90
8563;DHT22;16392;52.508;13.468;2023-03-01T10:16:03;10.10;99.90
8563;DHT22;16392;52.508;13.468;2023-03-01T10:18:33;10.40;99.90
8563;DHT22;16392;52.508;13.468;2023-03-01T10:21:05;10.60;99.90
8563;DHT22;16392;52.508;13.468;2023-03-01T10:23:36;9.90;99.90
8563;DHT22;16392;52.508;13.468;2023-03-01T10:26:12;10.10;99.90
8563;DHT22;16392;52.508;13.468;2023-03-01T10:28:50;10.60;99.90
8563;DHT22;16392;52.508;13.468;2023-03-01T10:31:22;10.90;99.90
8563;DHT22;16392;52.508;13.468;2023-03-01T10:33:54;11.20;99.90
8563;DHT22;16392;52.508;13.468;2023-03-01T10:36:22;11.50;99.90
8563;DHT22;16392;52.508;13.468;2023-03-01T10:38:52;11.30;99.90
8563;DHT22;16392;52.508;13.468;2023-03-01T10:41:20;10.80;99.90
8563;DHT22;16392;52.508;13.468;2023-03-01T10:43:52;11.00;99.90
8563;DHT22;16392;52.508;13.468;2023-03-01T10:46:24;11.50;99.90
8563;DHT22;16392;52.508;13.468;2023-03-01T10:49:12;11.80;99.90
8563;DHT22;16392;52.508;13.468;2023-03-01T10:51:40;11.50;99.90
8563;DHT22;16392;52.508;13.468;2023-03-01T10:54:16;11.20;99.90
8563;DHT22;16392;52.508;13.468;2023-03-01T10:56:48;11.30;99.90
8563;DHT22;16392;52.508;13.468;2023-03-01T10:59:25;11.10;99.90
8563;DHT22;16392;52.508;13.468;2023-03-01T11:02:16;10.60;99.90
8563;DHT22;16392;52.508;13.468;2023-03-01T11:04:58;10.70;99.90
8563;DHT22;16392;52.508;13.468;2023-03-01T11:07:25;10.90;99.90
8563;DHT22;16392;52.508;13.468;2023-03-01T11:09:52;10.90;99.90
8563;DHT22;16392;52.508;13.468;2023-03-01T11:12:20;11.50;99.90
8563;DHT22;16392;52.508;13.468;2023-03-01T11:14:48;12.40;99.90
8563;DHT22;16392;52.508;13.468;2023-03-01T11:17:20;11.60;99.90
8563;DHT22;16392;52.508;13.468;2023-03-01T11:20:02;11.40;99.90
8563;DHT22;16392;52.508;13.468;2023-03-01T11:22:32;11.80;99.90
8563;DHT22;16392;52.508;13.468;2023-03-01T11:25:01;11.60;99.90
8563;DHT22;16392;52.508;13.468;2023-03-01T11:27:31;11.00;99.90
8563;DHT22;16392;52.508;13.468;2023-03-01T11:30:02;10.80;99.90
8563;DHT22;16392;52.508;13.468;2023-03-01T11:32:34;10.50;99.90
8563;DHT22;16392;52.508;13.468;2023-03-01T11:35:08;10.40;99.90
8563;DHT22;16392;52.508;13.468;2023-03-01T11:37:41;10.10;99.90
8563;DHT22;16392;52.508;13.468;2023-03-01T11:40:25;9.90;99.90
8563;DHT22;16392;52.508;13.468;2023-03-01T11:43:02;9.20;99.90
8563;DHT22;16392;52.508;13.468;2023-03-01T11:45:40;9.40;99.90
8563;DHT22;16392;52.508;13.468;2023-03-01T11:48:33;10.10;99.90
8563;DHT22;16392;52.508;13.468;2023-03-01T11:51:09;10.70;99.90
8563;DHT22;16392;52.508;13.468;2023-03-01T11:53:54;11.30;99.90
8563;DHT22;16392;52.508;13.468;2023-03-01T11:56:28;11.40;99.90
8563;DHT22;16392;52.508;13.468;2023-03-01T11:59:08;10.70;99.90
8563;DHT22;16392;52.508;13.468;2023-03-01T12:01:51;10.30;99.90
8563;DHT22;16392;52.508;13.468;2023-03-01T12:04:45;10.00;99.90
8563;DHT22;16392;52.508;13.468;2023-03-01T12:07:20;10.30;99.90
8563;DHT22;16392;52.508;13.468;2023-03-01T12:10:20;10.70;99.90
8563;DHT22;16392;52.508;13.468;2023-03-01T12:13:12;11.00;99.90
8563;DHT22;16392;52.508;13.468;2023-03-01T12:16:15;11.20;99.90
8563;DHT22;16392;52.508;13.468;2023-03-01T12:19:01;11.90;99.90
8563;DHT22;16392;52.508;13.468;2023-03-01T12:21:43;12.50;99.90
8563;DHT22;16392;52.508;13.468;2023-03-01T12:24:41;12.40;99.90
8563;DHT22;16392;52.508;13.468;2023-03-01T12:27:25;12.20;99.90
8563;DHT22;16392;52.508;13.468;2023-03-01T12:30:00;12.10;99.90
8563;DHT22;16392;52.508;13.468;2023-03-01T12:32:51;12.20;99.90
8563;DHT22;16392;52.508;13.468;2023-03-01T12:35:36;12.20;99.90
8563;DHT22;16392;52.508;13.468;2023-03-01T12:38:20;11.70;99.90
8563;DHT22;16392;52.508;13.468;2023-03-01T12:41:08;11.10;99.90
8563;DHT22;16392;52.508;13.468;2023-03-01T12:43:46;10.80;99.90
8563;DHT22;16392;52.508;13.468;2023-03-01T12:46:28;11.00;99.90
8563;DHT22;16392;52.508;13.468;2023-03-01T12:49:04;11.40;99.90
8563;DHT22;16392;52.508;13.468;2023-03-01T12:51:34;11.30;99.90
8563;DHT22;16392;52.508;13.468;2023-03-01T12:54:07;10.80;99.90
8563;DHT22;16392;52.508;13.468;2023-03-01T12:56:39;10.30;99.90
8563;DHT22;16392;52.508;13.468;2023-03-01T12:59:12;10.40;99.90
8563;DHT22;16392;52.508;13.468;2023-03-01T13:01:45;10.40;99.90
8563;DHT22;16392;52.508;13.468;2023-03-01T13:04:27;10.50;99.60
8563;DHT22;16392;52.508;13.468;2023-03-01T13:07:02;10.50;99.90
8563;DHT22;16392;52.508;13.468;2023-03-01T13:09:37;10.30;92.60
8563;DHT22;16392;52.508;13.468;2023-03-01T13:12:44;10.40;96.20
8563;DHT22;16392;52.508;13.468;2023-03-01T13:15:33;9.50;43.50
8563;DHT22;16392;52.508;13.468;2023-03-01T13:18:02;9.30;33.60
8563;DHT22;16392;52.508;13.468;2023-03-01T13:20:34;9.60;65.60
8563;DHT22;16392;52.508;13.468;2023-03-01T13:23:25;9.60;50.10
8563;DHT22;16392;52.508;13.468;2023-03-01T13:26:07;9.50;48.70
8563;DHT22;16392;52.508;13.468;2023-03-01T13:28:41;9.80;56.30
8563;DHT22;16392;52.508;13.468;2023-03-01T13:31:09;10.10;57.90
8563;DHT22;16392;52.508;13.468;2023-03-01T13:33:43;9.80;58.90
8563;DHT22;16392;52.508;13.468;2023-03-01T13:36:13;9.70;49.50
8563;DHT22;16392;52.508;13.468;2023-03-01T13:39:02;9.30;26.10
8563;DHT22;16392;52.508;13.468;2023-03-01T13:41:48;8.80;35.50
8563;DHT22;16392;52.508;13.468;2023-03-01T13:44:21;8.50;17.10
8563;DHT22;16392;52.508;13.468;2023-03-01T13:46:52;8.60;22.00
8563;DHT22;16392;52.508;13.468;2023-03-01T13:49:21;8.90;37.40
8563;DHT22;16392;52.508;13.468;2023-03-01T13:51:50;9.10;45.10
8563;DHT22;16392;52.508;13.468;2023-03-01T13:54:25;9.10;30.20
8563;DHT22;16392;52.508;13.468;2023-03-01T13:56:53;9.20;25.10
8563;DHT22;16392;52.508;13.468;2023-03-01T13:59:21;9.30;33.40
8563;DHT22;16392;52.508;13.468;2023-03-01T14:01:52;9.20;30.40
8563;DHT22;16392;52.508;13.468;2023-03-01T14:04:22;9.10;36.00
8563;DHT22;16392;52.508;13.468;2023-03-01T14:06:49;9.00;28.50
8563;DHT22;16392;52.508;13.468;2023-03-01T14:09:20;9.00;33.40
8563;DHT22;16392;52.508;13.468;2023-03-01T14:12:02;8.80;27.40
8563;DHT22;16392;52.508;13.468;2023-03-01T14:14:42;8.90;33.30
8563;DHT22;16392;52.508;13.468;2023-03-01T14:17:34;8.90;39.80
8563;DHT22;16392;52.508;13.468;2023-03-01T14:20:09;8.80;45.90
8563;DHT22;16392;52.508;13.468;2023-03-01T14:22:41;8.50;27.00
8563;DHT22;16392;52.508;13.468;2023-03-01T14:25:21;8.70;36.10
8563;DHT22;16392;52.508;13.468;2023-03-01T14:27:59;8.80;46.60
8563;DHT22;16392;52.508;13.468;2023-03-01T14:30:30;8.90;52.90
8563;DHT22;16392;52.508;13.468;2023-03-01T14:32:59;8.70;60.60
8563;DHT22;16392;52.508;13.468;2023-03-01T14:35:28;8.60;53.10
8563;DHT22;16392;52.508;13.468;2023-03-01T14:37:55;8.50;50.00
8563;DHT22;16392;52.508;13.468;2023-03-01T14:40:26;8.30;54.60
8563;DHT22;16392;52.508;13.468;2023-03-01T14:42:54;8.30;55.10
8563;DHT22;16392;52.508;13.468;2023-03-01T14:45:24;8.20;57.70
8563;DHT22;16392;52.508;13.468;2023-03-01T14:47:52;8.20;60.90
8563;DHT22;16392;52.508;13.468;2023-03-01T14:50:23;8.20;70.00
8563;DHT22;16392;52.508;13.468;2023-03-01T14:52:54;8.20;77.50
8563;DHT22;16392;52.508;13.468;2023-03-01T14:55:27;8.10;76.10
8563;DHT22;16392;52.508;13.468;2023-03-01T14:57:56;8.10;84.60
8563;DHT22;16392;52.508;13.468;2023-03-01T15:00:25;8.00;88.20
8563;DHT22;16392;52.508;13.468;2023-03-01T15:02:54;8.10;94.60
8563;DHT22;16392;52.508;13.468;2023-03-01T15:05:25;8.00;99.50
8563;DHT22;16392;52.508;13.468;2023-03-01T15:07:53;8.10;99.90
8563;DHT22;16392;52.508;13.468;2023-03-01T15:10:22;8.10;99.90
8563;DHT22;16392;52.508;13.468;2023-03-01T15:12:50;8.00;99.90
8563;DHT22;16392;52.508;13.468;2023-03-01T15:15:38;8.00;99.90
8563;DHT22;16392;52.508;13.468;2023-03-01T15:18:15;8.10;99.90
8563;DHT22;16392;52.508;13.468;2023-03-01T15:20:43;8.10;99.90
8563;DHT22;16392;52.508;13.468;2023-03-01T15:23:19;8.00;99.90
8563;DHT22;16392;52.508;13.468;2023-03-01T15:25:46;7.90;99.90
8563;DHT22;16392;52.508;13.468;2023-03-01T15:28:22;7.90;99.90
8563;DHT22;16392;52.508;13.468;2023-03-01T15:30:54;7.90;99.90
8563;DHT22;16392;52.508;13.468;2023-03-01T15:33:30;7.90;99.90
8563;DHT22;16392;52.508;13.468;2023-03-01T15:35:57;7.80;99.90
8563;DHT22;16392;52.508;13.468;2023-03-01T15:38:36;7.80;99.90
8563;DHT22;16392;52.508;13.468;2023-03-01T15:41:22;7.80;99.90
8563;DHT22;16392;52.508;13.468;2023-03-01T15:43:50;7.70;99.90
8563;DHT22;16392;52.508;13.468;2023-03-01T15:46:26;7.70;99.90
8563;DHT22;16392;52.508;13.468;2023-03-01T15:48:55;7.80;99.90
8563;DHT22;16392;52.508;13.468;2023-03-01T15:51:29;7.80;99.90
8563;DHT22;16392;52.508;13.468;2023-03-01T15:53:58;7.80;99.90
8563;DHT22;16392;52.508;13.468;2023-03-01T15:56:25;7.80;99.90
8563;DHT22;16392;52.508;13.468;2023-03-01T15:58:57;7.80;99.90
8563;DHT22;16392;52.508;13.468;2023-03-01T16:01:24;7.80;99.90
8563;DHT22;16392;52.508;13.468;2023-03-01T16:03:51;7.70;99.90